createdAt,value
2023-05-14T00:01:26.134Z,101701.72
2023-05-14T00:04:12.755Z,101706.80
2023-05-14T00:06:59.258Z,101704.17
2023-05-14T00:09:46.696Z,101702.42
2023-05-14T00:12:33.906Z,101702.02
2023-05-14T00:15:20.667Z,101688.88
2023-05-14T00:18:07.220Z,101701.64
2023-05-14T00:20:54.980Z,101700.61
2023-05-14T00:23:41.763Z,101702.48
2023-05-14T00:26:28.408Z,101697.15
2023-05-14T00:29:15.130Z,101695.36
2023-05-14T00:32:01.515Z,101680.16
2023-05-14T00:34:48.044Z,101692.61
2023-05-14T00:37:34.463Z,101686.59
2023-05-14T00:40:25.844Z,101687.07
2023-05-14T00:43:12.913Z,101680.73
2023-05-14T00:46:00.384Z,101682.17
2023-05-14T00:48:46.555Z,101681.66
2023-05-14T00:51:33.263Z,101682.58
2023-05-14T00:54:20.988Z,101686.79
2023-05-14T00:57:07.535Z,101683.91
2023-05-14T00:59:53.979Z,101690.84
2023-05-14T01:02:40.662Z,101694.23
2023-05-14T01:05:36.558Z,101699.08
2023-05-14T01:08:46.684Z,101699.16
2023-05-14T01:11:59.869Z,101700.41
2023-05-14T01:15:09.200Z,101698.17
2023-05-14T01:18:01.676Z,101700.88
2023-05-14T01:20:52.203Z,101695.84
2023-05-14T01:23:38.500Z,101697.77
2023-05-14T01:26:24.998Z,101697.80
2023-05-14T01:29:26.724Z,101692.46
2023-05-14T01:32:13.708Z,101695.95
2023-05-14T01:35:01.769Z,101691.56
2023-05-14T01:37:50.353Z,101689.71
2023-05-14T01:40:37.685Z,101691.61
2023-05-14T01:43:24.512Z,101689.09
2023-05-14T01:46:11.449Z,101683.35
2023-05-14T01:48:58.150Z,101688.42
2023-05-14T01:51:44.557Z,101691.08
2023-05-14T01:54:31.179Z,101682.28
2023-05-14T01:57:18.139Z,101677.34
2023-05-14T02:00:05.019Z,101677.36
2023-05-14T02:03:00.686Z,101672.19
2023-05-14T02:05:47.396Z,101672.14
2023-05-14T02:08:33.929Z,101669.63
2023-05-14T02:11:20.499Z,101669.27
2023-05-14T02:14:07.067Z,101664.73
2023-05-14T02:16:53.439Z,101666.02
2023-05-14T02:19:40.153Z,101667.42
2023-05-14T02:22:26.740Z,101660.76
2023-05-14T02:25:12.956Z,101665.11
2023-05-14T02:27:59.568Z,101669.77
2023-05-14T02:30:46.132Z,101659.39
2023-05-14T02:33:32.950Z,101666.84
2023-05-14T02:36:19.603Z,101662.25
2023-05-14T02:39:05.966Z,101662.04
2023-05-14T02:41:52.314Z,101659.33
2023-05-14T02:44:38.831Z,101649.27
2023-05-14T02:47:25.424Z,101659.50
2023-05-14T02:50:12.022Z,101652.04
2023-05-14T02:52:58.649Z,101652.63
2023-05-14T02:55:45.444Z,101649.97
2023-05-14T02:58:31.823Z,101649.98
2023-05-14T03:01:18.975Z,101649.63
2023-05-14T03:04:05.931Z,101651.01
2023-05-14T03:06:52.144Z,101650.83
2023-05-14T03:09:38.552Z,101650.80
2023-05-14T03:12:25.084Z,101656.69
2023-05-14T03:15:11.757Z,101656.44
2023-05-14T03:17:58.071Z,101654.95
2023-05-14T03:20:44.457Z,101654.77
2023-05-14T03:23:32.101Z,101658.52
2023-05-14T03:26:18.804Z,101657.10
2023-05-14T03:29:05.272Z,101655.70
2023-05-14T03:31:51.991Z,101658.23
2023-05-14T03:34:38.449Z,101656.27
2023-05-14T03:37:25.197Z,101654.30
2023-05-14T03:40:11.815Z,101642.73
2023-05-14T03:42:58.379Z,101637.56
2023-05-14T03:45:44.981Z,101650.25
2023-05-14T03:48:31.533Z,101635.13
2023-05-14T03:51:18.218Z,101642.17
2023-05-14T03:54:04.931Z,101643.55
2023-05-14T03:56:52.013Z,101642.59
2023-05-14T03:59:38.388Z,101640.84
2023-05-14T04:02:25.213Z,101636.48
2023-05-14T04:05:11.765Z,101637.06
2023-05-14T04:07:58.269Z,101629.81
2023-05-14T04:10:45.049Z,101632.13
2023-05-14T04:13:31.686Z,101633.33
2023-05-14T04:16:18.209Z,101632.07
2023-05-14T04:19:05.861Z,101632.36
2023-05-14T04:21:52.650Z,101632.05
2023-05-14T04:24:40.052Z,101634.46
2023-05-14T04:27:27.296Z,101630.58
2023-05-14T04:30:13.796Z,101631.11
2023-05-14T04:32:59.998Z,101630.72
2023-05-14T04:35:46.648Z,101633.38
2023-05-14T04:38:33.458Z,101631.55
2023-05-14T04:41:20.136Z,101631.27
2023-05-14T04:44:07.180Z,101626.83
2023-05-14T04:46:53.536Z,101624.58
2023-05-14T04:49:39.984Z,101615.22
2023-05-14T04:52:26.785Z,101616.37
2023-05-14T04:55:13.322Z,101611.11
2023-05-14T04:57:59.986Z,101612.96
2023-05-14T05:00:46.606Z,101612.60
2023-05-14T05:03:32.929Z,101617.04
2023-05-14T05:06:19.528Z,101618.71
2023-05-14T05:09:05.973Z,101615.63
2023-05-14T05:11:52.521Z,101611.13
2023-05-14T05:14:39.217Z,101614.39
2023-05-14T05:17:25.718Z,101614.52
2023-05-14T05:20:13.371Z,101608.75
2023-05-14T05:22:59.982Z,101603.94
2023-05-14T05:25:46.543Z,101603.23
2023-05-14T05:28:33.061Z,101600.58
2023-05-14T05:31:20.070Z,101598.01
2023-05-14T05:34:06.654Z,101600.14
2023-05-14T05:36:53.234Z,101600.46
2023-05-14T05:39:40.169Z,101592.04
2023-05-14T05:42:26.727Z,101592.52
2023-05-14T05:45:13.398Z,101590.56
2023-05-14T05:48:00.017Z,101589.96
2023-05-14T05:50:50.286Z,101583.73
2023-05-14T05:53:36.484Z,101586.77
2023-05-14T05:56:22.872Z,101591.38
2023-05-14T05:59:09.253Z,101586.81
2023-05-14T06:01:55.608Z,101586.33
2023-05-14T06:04:42.084Z,101584.41
2023-05-14T06:07:28.540Z,101583.98
2023-05-14T06:10:15.351Z,101582.92
2023-05-14T06:13:02.073Z,101578.98
2023-05-14T06:15:48.267Z,101572.19
2023-05-14T06:18:34.813Z,101572.38
2023-05-14T06:21:21.841Z,101576.09
2023-05-14T06:24:08.360Z,101572.96
2023-05-14T06:26:54.882Z,101575.50
2023-05-14T06:29:41.869Z,101570.42
2023-05-14T06:32:28.186Z,101563.61
2023-05-14T06:35:14.638Z,101563.36
2023-05-14T06:38:01.382Z,101572.67
2023-05-14T06:40:47.866Z,101580.98
2023-05-14T06:43:34.309Z,101576.82
2023-05-14T06:46:21.241Z,101574.67
2023-05-14T06:49:07.667Z,101569.18
2023-05-14T06:51:54.239Z,101566.31
2023-05-14T06:54:40.780Z,101561.20
2023-05-14T06:57:27.579Z,101558.31
2023-05-14T07:00:15.610Z,101558.04
2023-05-14T07:03:02.385Z,101558.55
2023-05-14T07:05:48.913Z,101560.64
2023-05-14T07:08:36.114Z,101557.35
2023-05-14T07:11:23.182Z,101554.02
2023-05-14T07:14:09.784Z,101554.35
2023-05-14T07:16:57.365Z,101548.85
2023-05-14T07:19:43.888Z,101547.96
2023-05-14T07:22:30.438Z,101544.68
2023-05-14T07:25:16.984Z,101541.88
2023-05-14T07:28:03.421Z,101539.39
2023-05-14T07:30:49.638Z,101534.98
2023-05-14T07:33:36.618Z,101526.15
2023-05-14T07:36:23.128Z,101524.25
2023-05-14T07:39:09.269Z,101516.35
2023-05-14T07:41:55.880Z,101511.57
2023-05-14T07:44:42.731Z,101507.84
2023-05-14T07:47:29.390Z,101510.46
2023-05-14T07:50:16.715Z,101508.52
2023-05-14T07:53:03.461Z,101508.80
2023-05-14T07:55:50.528Z,101502.03
2023-05-14T07:58:36.824Z,101498.34
2023-05-14T08:01:23.232Z,101493.95
2023-05-14T08:04:11.745Z,101494.23
2023-05-14T08:06:58.794Z,101489.92
2023-05-14T08:09:45.089Z,101486.51
2023-05-14T08:12:31.843Z,101480.81
2023-05-14T08:15:18.883Z,101481.48
2023-05-14T08:18:05.686Z,101474.52
2023-05-14T08:20:52.045Z,101472.98
2023-05-14T08:23:38.688Z,101472.30
2023-05-14T08:26:25.871Z,101466.79
2023-05-14T08:29:14.687Z,101470.09
2023-05-14T08:32:08.735Z,101464.91
2023-05-14T08:35:06.861Z,101463.00
2023-05-14T08:37:53.457Z,101458.86
2023-05-14T08:40:40.274Z,101458.17
2023-05-14T08:43:30.795Z,101455.13
2023-05-14T08:46:18.025Z,101451.70
2023-05-14T08:49:15.571Z,101450.99
2023-05-14T08:52:02.676Z,101445.22
2023-05-14T08:54:51.206Z,101441.24
2023-05-14T08:57:37.997Z,101440.34
2023-05-14T09:00:25.081Z,101435.81
2023-05-14T09:03:12.651Z,101433.11
2023-05-14T09:06:00.190Z,101430.20
2023-05-14T09:08:47.261Z,101425.33
2023-05-14T09:11:33.858Z,101428.20
2023-05-14T09:14:20.992Z,101425.44
2023-05-14T09:17:08.122Z,101421.25
2023-05-14T09:19:54.671Z,101416.52
2023-05-14T09:22:42.112Z,101417.57
2023-05-14T09:25:32.463Z,101411.73
2023-05-14T09:28:19.186Z,101413.95
2023-05-14T09:31:05.628Z,101405.46
2023-05-14T09:33:52.605Z,101410.65
2023-05-14T09:36:39.168Z,101411.52
2023-05-14T09:39:26.650Z,101407.36
2023-05-14T09:42:13.189Z,101405.91
2023-05-14T09:44:59.998Z,101406.64
2023-05-14T09:47:46.568Z,101399.09
2023-05-14T09:50:42.068Z,101389.39
2023-05-14T09:53:29.836Z,101389.70
2023-05-14T09:56:16.587Z,101388.64
2023-05-14T09:59:04.006Z,101376.88
2023-05-14T10:01:52.336Z,101372.91
2023-05-14T10:04:39.212Z,101366.98
2023-05-14T10:07:31.758Z,101362.67
2023-05-14T10:10:21.946Z,101356.54
2023-05-14T10:13:14.771Z,101354.74
2023-05-14T10:16:11.264Z,101348.21
2023-05-14T10:19:06.053Z,101353.61
2023-05-14T10:21:57.147Z,101352.89
2023-05-14T10:24:44.006Z,101347.11
2023-05-14T10:27:30.764Z,101343.52
2023-05-14T10:30:23.121Z,101339.08
2023-05-14T10:33:13.293Z,101334.16
2023-05-14T10:36:07.723Z,101320.44
2023-05-14T10:38:57.502Z,101320.27
2023-05-14T10:41:44.400Z,101321.23
2023-05-14T10:44:32.320Z,101320.77
2023-05-14T10:47:19.265Z,101319.29
2023-05-14T10:50:07.918Z,101315.64
2023-05-14T10:52:55.338Z,101315.56
2023-05-14T10:55:43.140Z,101302.57
2023-05-14T10:58:33.667Z,101303.35
2023-05-14T11:01:24.128Z,101303.25
2023-05-14T11:04:19.401Z,101302.39
2023-05-14T11:07:06.253Z,101295.57
2023-05-14T11:09:53.959Z,101293.79
2023-05-14T11:12:42.632Z,101297.23
2023-05-14T11:15:29.207Z,101292.50
2023-05-14T11:18:27.934Z,101287.21
2023-05-14T11:21:14.353Z,101280.86
2023-05-14T11:24:01.629Z,101276.40
2023-05-14T11:26:48.305Z,101272.56
2023-05-14T11:29:36.849Z,101266.08
2023-05-14T11:32:23.644Z,101258.37
2023-05-14T11:35:10.787Z,101260.88
2023-05-14T11:37:57.293Z,101260.77
2023-05-14T11:40:53.117Z,101256.15
2023-05-14T11:43:39.530Z,101262.95
2023-05-14T11:46:26.326Z,101260.34
2023-05-14T11:49:13.044Z,101260.38
2023-05-14T11:52:00.886Z,101258.98
2023-05-14T11:54:47.769Z,101256.10
2023-05-14T11:57:35.385Z,101256.84
2023-05-14T12:00:23.296Z,101257.92
2023-05-14T12:03:10.214Z,101251.72
2023-05-14T12:06:01.128Z,101248.81
2023-05-14T12:08:49.244Z,101240.02
2023-05-14T12:11:36.912Z,101235.55
2023-05-14T12:14:24.509Z,101231.65
2023-05-14T12:17:23.703Z,101221.14
2023-05-14T12:20:12.491Z,101215.10
2023-05-14T12:22:59.274Z,101213.45
2023-05-14T12:25:52.785Z,101206.94
2023-05-14T12:28:43.523Z,101203.44
2023-05-14T12:31:31.694Z,101198.64
2023-05-14T12:34:18.223Z,101193.16
2023-05-14T12:37:06.158Z,101182.29
2023-05-14T12:39:52.663Z,101191.27
2023-05-14T12:42:39.293Z,101186.63
2023-05-14T12:45:26.048Z,101180.79
2023-05-14T12:48:13.217Z,101191.94
2023-05-14T12:50:59.730Z,101189.05
2023-05-14T12:53:46.304Z,101184.29
2023-05-14T12:56:32.643Z,101187.81
2023-05-14T12:59:19.074Z,101190.02
2023-05-14T13:02:05.837Z,101180.61
2023-05-14T13:04:52.467Z,101181.01
2023-05-14T13:07:39.280Z,101178.62
2023-05-14T13:10:25.733Z,101169.94
2023-05-14T13:13:12.405Z,101166.40
2023-05-14T13:15:58.652Z,101169.29
2023-05-14T13:18:45.294Z,101165.15
2023-05-14T13:21:32.079Z,101157.54
2023-05-14T13:24:18.555Z,101149.31
2023-05-14T13:27:05.694Z,101146.52
2023-05-14T13:29:52.115Z,101142.30
2023-05-14T13:32:39.646Z,101141.80
2023-05-14T13:35:28.129Z,101143.53
2023-05-14T13:38:14.707Z,101141.66
2023-05-14T13:41:04.396Z,101136.78
2023-05-14T13:43:51.180Z,101139.71
2023-05-14T13:46:37.762Z,101132.95
2023-05-14T13:49:24.036Z,101132.41
2023-05-14T13:52:10.538Z,101130.70
2023-05-14T13:54:57.260Z,101137.41
2023-05-14T13:57:44.382Z,101137.71
2023-05-14T14:00:30.925Z,101133.37
2023-05-14T14:03:17.514Z,101137.77
2023-05-14T14:06:03.864Z,101139.44
2023-05-14T14:08:50.353Z,101133.05
2023-05-14T14:11:36.953Z,101127.87
2023-05-14T14:14:23.582Z,101128.45
2023-05-14T14:17:09.801Z,101123.05
2023-05-14T14:19:56.099Z,101114.89
2023-05-14T14:22:44.851Z,101113.75
2023-05-14T14:25:31.001Z,101113.14
2023-05-14T14:28:17.564Z,101109.89
2023-05-14T14:31:04.031Z,101103.88
2023-05-14T14:33:50.573Z,101097.83
2023-05-14T14:36:36.781Z,101100.29
2023-05-14T14:39:25.512Z,101095.49
2023-05-14T14:42:12.149Z,101091.38
2023-05-14T14:44:58.949Z,101085.04
2023-05-14T14:47:46.789Z,101085.09
2023-05-14T14:50:33.669Z,101087.91
2023-05-14T14:53:21.671Z,101089.59
2023-05-14T14:56:08.017Z,101086.48
2023-05-14T14:58:54.292Z,101088.41
2023-05-14T15:01:40.972Z,101084.18
2023-05-14T15:04:28.521Z,101077.29
2023-05-14T15:07:17.408Z,101077.80
2023-05-14T15:10:04.023Z,101076.16
2023-05-14T15:12:50.613Z,101068.52
2023-05-14T15:15:37.657Z,101063.71
2023-05-14T15:18:23.923Z,101066.65
2023-05-14T15:21:10.709Z,101055.79
2023-05-14T15:23:56.850Z,101054.31
2023-05-14T15:26:43.416Z,101055.27
2023-05-14T15:29:30.295Z,101048.70
2023-05-14T15:32:17.127Z,101051.80
2023-05-14T15:35:04.049Z,101046.80
2023-05-14T15:37:50.878Z,101050.37
2023-05-14T15:40:37.542Z,101045.30
2023-05-14T15:43:23.986Z,101044.70
2023-05-14T15:46:11.428Z,101041.02
2023-05-14T15:48:58.446Z,101034.88
2023-05-14T15:51:45.070Z,101035.45
2023-05-14T15:54:31.744Z,101031.92
2023-05-14T15:57:19.988Z,101026.86
2023-05-14T16:00:11.147Z,101018.15
2023-05-14T16:02:57.578Z,101016.96
2023-05-14T16:05:44.882Z,101013.69
2023-05-14T16:08:31.198Z,101011.42
2023-05-14T16:11:18.333Z,101012.73
2023-05-14T16:14:04.752Z,101017.91
2023-05-14T16:16:51.553Z,101013.93
2023-05-14T16:19:39.734Z,101005.90
2023-05-14T16:22:25.836Z,101011.17
2023-05-14T16:25:12.263Z,101007.13
2023-05-14T16:27:59.134Z,101002.73
2023-05-14T16:30:45.656Z,100997.84
2023-05-14T16:33:32.360Z,100993.83
2023-05-14T16:36:19.050Z,100991.58
2023-05-14T16:39:08.186Z,100993.45
2023-05-14T16:41:55.094Z,100985.93
2023-05-14T16:44:41.372Z,100986.52
2023-05-14T16:47:27.826Z,100980.97
2023-05-14T16:50:14.422Z,100986.23
2023-05-14T16:53:00.520Z,100989.88
2023-05-14T16:55:47.106Z,100989.73
2023-05-14T16:58:33.444Z,100982.70
2023-05-14T17:01:20.039Z,100974.98
2023-05-14T17:04:06.286Z,100974.64
2023-05-14T17:06:52.700Z,100977.71
2023-05-14T17:09:39.588Z,100980.23
2023-05-14T17:12:27.056Z,100977.72
2023-05-14T17:15:12.673Z,100979.52
2023-05-14T17:17:59.059Z,100978.08
2023-05-14T17:20:45.623Z,100973.37
2023-05-14T17:23:32.141Z,100974.62
2023-05-14T17:26:18.715Z,100978.94
2023-05-14T17:29:05.237Z,100972.27
2023-05-14T17:31:52.155Z,100976.39
2023-05-14T17:34:38.663Z,100973.86
2023-05-14T17:37:25.782Z,100972.06
2023-05-14T17:40:12.500Z,100974.58
2023-05-14T17:42:58.910Z,100974.92
2023-05-14T17:45:53.968Z,100975.45
2023-05-14T17:48:41.313Z,100977.59
2023-05-14T17:51:27.816Z,100980.80
2023-05-14T17:54:14.331Z,100977.15
2023-05-14T17:57:00.691Z,100974.75
2023-05-14T17:59:47.039Z,100978.29
2023-05-14T18:02:33.841Z,100978.45
2023-05-14T18:05:20.796Z,100975.67
2023-05-14T18:08:09.180Z,100976.16
2023-05-14T18:10:55.583Z,100973.02
2023-05-14T18:13:41.964Z,100978.89
2023-05-14T18:16:28.823Z,100979.48
2023-05-14T18:19:15.159Z,100977.60
2023-05-14T18:22:01.974Z,100975.71
2023-05-14T18:24:48.738Z,100977.98
2023-05-14T18:27:37.479Z,100979.86
2023-05-14T18:30:24.263Z,100975.48
2023-05-14T18:33:10.646Z,100972.66
2023-05-14T18:35:57.597Z,100975.24
2023-05-14T18:38:43.826Z,100967.67
2023-05-14T18:41:30.180Z,100978.53
2023-05-14T18:44:16.377Z,100977.66
2023-05-14T18:47:03.002Z,100977.84
2023-05-14T18:49:51.034Z,100977.42
2023-05-14T18:52:38.216Z,100970.73
2023-05-14T18:55:25.042Z,100979.20
2023-05-14T18:58:12.144Z,100983.66
2023-05-14T19:00:59.186Z,100983.70
2023-05-14T19:03:45.856Z,100984.46
2023-05-14T19:06:32.915Z,100987.89
2023-05-14T19:09:21.243Z,100989.86
2023-05-14T19:12:08.310Z,100991.48
2023-05-14T19:14:54.692Z,100994.41
2023-05-14T19:17:42.028Z,100990.55
2023-05-14T19:20:28.806Z,100990.11
2023-05-14T19:23:15.395Z,100986.23
2023-05-14T19:26:02.494Z,100986.48
2023-05-14T19:28:49.130Z,100983.84
2023-05-14T19:31:35.688Z,100988.16
2023-05-14T19:34:22.301Z,100993.17
2023-05-14T19:37:08.547Z,100995.59
2023-05-14T19:39:54.829Z,100991.86
2023-05-14T19:42:41.489Z,100993.02
2023-05-14T19:45:28.264Z,100990.06
2023-05-14T19:48:15.965Z,100986.19
2023-05-14T19:51:03.476Z,100990.55
2023-05-14T19:53:49.824Z,100990.77
2023-05-14T19:56:36.601Z,100985.11
2023-05-14T19:59:23.825Z,100988.05
2023-05-14T20:02:12.844Z,100981.52
2023-05-14T20:04:59.566Z,100978.56
2023-05-14T20:07:46.999Z,100973.98
2023-05-14T20:10:33.872Z,100970.62
2023-05-14T20:13:21.823Z,100966.35
2023-05-14T20:16:09.870Z,100965.86
2023-05-14T20:18:56.354Z,100963.64
2023-05-14T20:21:43.184Z,100957.88
2023-05-14T20:24:29.605Z,100954.64
2023-05-14T20:27:18.888Z,100953.05
2023-05-14T20:30:09.197Z,100948.67
2023-05-14T20:32:55.848Z,100949.34
2023-05-14T20:35:44.013Z,100952.33
2023-05-14T20:38:32.855Z,100950.48
2023-05-14T20:41:19.344Z,100946.12
2023-05-14T20:44:06.180Z,100942.99
2023-05-14T20:46:52.931Z,100941.79
2023-05-14T20:49:39.621Z,100940.00
2023-05-14T20:52:26.570Z,100937.23
2023-05-14T20:55:13.403Z,100935.45
2023-05-14T20:58:00.034Z,100933.23
2023-05-14T21:00:46.539Z,100928.70
2023-05-14T21:03:32.915Z,100929.90
2023-05-14T21:06:19.719Z,100922.14
2023-05-14T21:09:06.303Z,100917.41
2023-05-14T21:11:53.677Z,100912.25
2023-05-14T21:14:40.121Z,100909.23
2023-05-14T21:17:26.377Z,100905.58
2023-05-14T21:20:15.557Z,100906.34
2023-05-14T21:23:02.138Z,100911.49
2023-05-14T21:25:48.667Z,100906.28
2023-05-14T21:28:35.051Z,100909.23
2023-05-14T21:31:21.678Z,100904.00
2023-05-14T21:34:08.385Z,100905.34
2023-05-14T21:36:54.752Z,100901.16
2023-05-14T21:39:41.680Z,100898.41
2023-05-14T21:42:28.118Z,100898.89
2023-05-14T21:45:14.866Z,100900.08
2023-05-14T21:48:01.141Z,100896.61
2023-05-14T21:50:48.023Z,100894.61
2023-05-14T21:53:34.920Z,100894.93
2023-05-14T21:56:22.676Z,100890.14
2023-05-14T21:59:08.955Z,100885.15
2023-05-14T22:02:06.813Z,100882.30
2023-05-14T22:04:54.370Z,100877.88
2023-05-14T22:07:40.894Z,100878.56
2023-05-14T22:10:27.693Z,100872.60
2023-05-14T22:13:14.469Z,100868.98
2023-05-14T22:16:09.311Z,100865.20
2023-05-14T22:18:58.921Z,100862.70
2023-05-14T22:21:45.773Z,100858.67
2023-05-14T22:24:32.247Z,100857.64
2023-05-14T22:27:19.075Z,100851.55
2023-05-14T22:30:06.006Z,100848.59
2023-05-14T22:32:52.618Z,100844.15
2023-05-14T22:35:39.327Z,100837.40
2023-05-14T22:38:25.971Z,100839.38
2023-05-14T22:41:12.578Z,100835.92
2023-05-14T22:43:59.059Z,100831.44
2023-05-14T22:46:45.717Z,100837.09
2023-05-14T22:49:32.326Z,100834.59
2023-05-14T22:52:21.574Z,100820.01
2023-05-14T22:55:08.500Z,100823.48
2023-05-14T22:57:54.854Z,100816.39
2023-05-14T23:00:41.203Z,100814.50
2023-05-14T23:03:27.972Z,100812.35
2023-05-14T23:06:14.810Z,100808.29
2023-05-14T23:09:01.051Z,100804.15
2023-05-14T23:11:47.705Z,100790.34
2023-05-14T23:14:34.325Z,100795.64
2023-05-14T23:17:20.744Z,100790.80
2023-05-14T23:20:10.511Z,100784.77
2023-05-14T23:22:57.010Z,100780.48
2023-05-14T23:25:43.626Z,100775.79
2023-05-14T23:28:30.868Z,100772.51
2023-05-14T23:31:17.456Z,100772.05
2023-05-14T23:34:04.073Z,100769.32
2023-05-14T23:36:50.784Z,100764.96
2023-05-14T23:39:37.735Z,100762.10
2023-05-14T23:42:24.799Z,100756.27
2023-05-14T23:45:13.005Z,100753.92
2023-05-14T23:48:01.398Z,100748.83
2023-05-14T23:50:47.711Z,100744.02
2023-05-14T23:53:33.948Z,100744.17
2023-05-14T23:56:20.555Z,100732.27
2023-05-14T23:59:07.613Z,100725.99
